createdAt,value
2023-02-06T00:01:41.944Z,9.00
2023-02-06T00:04:08.231Z,9.83
2023-02-06T00:06:34.553Z,8.63
2023-02-06T00:09:00.808Z,9.10
2023-02-06T00:11:27.026Z,9.30
2023-02-06T00:13:53.460Z,9.37
2023-02-06T00:16:26.940Z,9.10
2023-02-06T00:18:53.870Z,9.07
2023-02-06T00:21:21.927Z,9.13
2023-02-06T00:23:49.441Z,8.17
2023-02-06T00:26:15.730Z,9.40
2023-02-06T00:28:42.021Z,8.90
2023-02-06T00:31:08.718Z,9.70
2023-02-06T00:33:35.190Z,8.93
2023-02-06T00:36:01.768Z,9.10
2023-02-06T00:38:27.979Z,8.90
2023-02-06T00:40:54.285Z,9.93
2023-02-06T00:43:20.746Z,9.23
2023-02-06T00:45:51.157Z,9.90
2023-02-06T00:48:17.468Z,10.07
2023-02-06T00:50:43.713Z,9.77
2023-02-06T00:53:10.995Z,10.10
2023-02-06T00:55:37.377Z,9.87
2023-02-06T00:58:03.653Z,10.00
2023-02-06T01:00:29.994Z,11.10
2023-02-06T01:02:56.268Z,10.57
2023-02-06T01:05:22.517Z,10.53
2023-02-06T01:07:48.751Z,10.73
2023-02-06T01:10:14.997Z,11.07
2023-02-06T01:12:41.690Z,11.90
2023-02-06T01:15:09.163Z,11.47
2023-02-06T01:17:35.933Z,11.17
2023-02-06T01:20:02.148Z,12.20
2023-02-06T01:22:28.395Z,12.30
2023-02-06T01:24:54.663Z,12.33
2023-02-06T01:27:20.925Z,12.70
2023-02-06T01:29:47.135Z,12.17
2023-02-06T01:32:13.372Z,12.33
2023-02-06T01:34:39.637Z,12.37
2023-02-06T01:37:05.906Z,12.17
2023-02-06T01:39:33.047Z,11.47
2023-02-06T01:41:59.293Z,11.97
2023-02-06T01:44:26.486Z,11.97
2023-02-06T01:46:54.266Z,12.23
2023-02-06T01:49:24.926Z,12.03
2023-02-06T01:51:52.986Z,12.57
2023-02-06T01:54:19.576Z,12.40
2023-02-06T01:56:51.125Z,11.53
2023-02-06T01:59:17.686Z,11.60
2023-02-06T02:01:44.994Z,11.63
2023-02-06T02:04:14.641Z,11.53
2023-02-06T02:06:41.206Z,12.13
2023-02-06T02:09:07.664Z,11.43
2023-02-06T02:11:35.022Z,11.57
2023-02-06T02:14:02.156Z,11.10
2023-02-06T02:16:40.617Z,11.23
2023-02-06T02:19:15.833Z,10.47
2023-02-06T02:21:56.361Z,11.47
2023-02-06T02:24:42.854Z,11.43
2023-02-06T02:27:27.646Z,10.83
2023-02-06T02:29:53.948Z,11.50
2023-02-06T02:32:37.602Z,10.67
2023-02-06T02:35:19.733Z,10.63
2023-02-06T02:37:55.770Z,10.13
2023-02-06T02:40:29.148Z,10.63
2023-02-06T02:43:12.652Z,11.13
2023-02-06T02:45:44.891Z,10.73
2023-02-06T02:48:14.382Z,11.23
2023-02-06T02:50:41.712Z,11.00
2023-02-06T02:53:08.160Z,11.10
2023-02-06T02:55:35.073Z,11.17
2023-02-06T02:58:05.819Z,11.53
2023-02-06T03:00:34.856Z,11.80
2023-02-06T03:03:01.377Z,11.53
2023-02-06T03:05:27.931Z,10.57
2023-02-06T03:08:11.966Z,11.07
2023-02-06T03:10:58.278Z,10.50
2023-02-06T03:13:34.466Z,10.40
2023-02-06T03:16:19.179Z,10.10
2023-02-06T03:19:04.114Z,9.90
2023-02-06T03:21:32.180Z,10.47
2023-02-06T03:24:02.252Z,10.07
2023-02-06T03:26:29.809Z,10.07
2023-02-06T03:28:58.894Z,10.00
2023-02-06T03:31:27.197Z,9.43
2023-02-06T03:33:56.389Z,9.23
2023-02-06T03:36:22.698Z,9.00
2023-02-06T03:38:49.985Z,8.87
2023-02-06T03:41:17.027Z,8.87
2023-02-06T03:43:45.462Z,8.60
2023-02-06T03:46:12.870Z,9.13
2023-02-06T03:48:44.277Z,8.40
2023-02-06T03:51:13.474Z,8.50
2023-02-06T03:53:41.228Z,8.47
2023-02-06T03:56:09.598Z,7.90
2023-02-06T03:58:36.014Z,8.00
2023-02-06T04:01:03.544Z,7.33
2023-02-06T04:03:30.484Z,7.17
2023-02-06T04:05:56.745Z,7.20
2023-02-06T04:08:23.011Z,7.30
2023-02-06T04:10:49.250Z,6.67
2023-02-06T04:13:15.537Z,7.27
2023-02-06T04:15:41.781Z,7.07
2023-02-06T04:18:08.057Z,7.00
2023-02-06T04:20:34.336Z,7.00
2023-02-06T04:23:00.580Z,7.77
2023-02-06T04:25:26.825Z,7.53
2023-02-06T04:27:53.149Z,6.77
2023-02-06T04:30:19.624Z,7.27
2023-02-06T04:32:45.995Z,6.90
2023-02-06T04:35:12.345Z,6.97
2023-02-06T04:37:38.696Z,6.93
2023-02-06T04:40:06.166Z,6.63
2023-02-06T04:42:32.432Z,7.00
2023-02-06T04:44:58.727Z,7.03
2023-02-06T04:47:24.972Z,6.60
2023-02-06T04:49:51.265Z,6.73
2023-02-06T04:52:17.623Z,6.60
2023-02-06T04:54:43.878Z,6.20
2023-02-06T04:57:10.102Z,6.40
2023-02-06T04:59:36.386Z,7.07
2023-02-06T05:02:02.691Z,7.10
2023-02-06T05:04:28.918Z,6.50
2023-02-06T05:06:55.201Z,7.07
2023-02-06T05:09:21.514Z,6.93
2023-02-06T05:11:47.729Z,6.80
2023-02-06T05:14:13.975Z,6.50
2023-02-06T05:16:40.234Z,6.20
2023-02-06T05:19:06.479Z,6.73
2023-02-06T05:21:32.758Z,6.47
2023-02-06T05:23:59.870Z,6.70
2023-02-06T05:26:26.106Z,6.93
2023-02-06T05:28:52.536Z,6.30
2023-02-06T05:31:20.200Z,6.70
2023-02-06T05:33:49.359Z,6.77
2023-02-06T05:36:16.693Z,5.87
2023-02-06T05:38:42.998Z,6.73
2023-02-06T05:41:09.260Z,7.47
2023-02-06T05:43:35.580Z,6.77
2023-02-06T05:46:02.262Z,6.53
2023-02-06T05:48:30.493Z,7.23
2023-02-06T05:50:57.788Z,6.87
2023-02-06T05:53:24.383Z,6.17
2023-02-06T05:55:50.631Z,7.57
2023-02-06T05:58:16.916Z,7.13
2023-02-06T06:00:43.169Z,7.10
2023-02-06T06:03:09.446Z,7.20
2023-02-06T06:05:36.032Z,7.20
2023-02-06T06:08:02.507Z,6.60
2023-02-06T06:10:28.848Z,7.70
2023-02-06T06:12:55.162Z,7.50
2023-02-06T06:15:21.407Z,7.47
2023-02-06T06:17:47.647Z,7.00
2023-02-06T06:20:14.019Z,7.30
2023-02-06T06:22:40.274Z,7.50
2023-02-06T06:25:06.871Z,8.00
2023-02-06T06:27:33.353Z,8.10
2023-02-06T06:29:59.642Z,8.03
2023-02-06T06:32:25.854Z,7.90
2023-02-06T06:34:52.089Z,7.77
2023-02-06T06:37:18.369Z,8.83
2023-02-06T06:39:44.613Z,8.07
2023-02-06T06:42:10.842Z,8.40
2023-02-06T06:44:37.150Z,7.60
2023-02-06T06:47:03.469Z,8.07
2023-02-06T06:49:29.742Z,8.37
2023-02-06T06:51:55.968Z,8.60
2023-02-06T06:54:22.826Z,9.00
2023-02-06T06:56:49.060Z,7.93
2023-02-06T06:59:15.391Z,8.40
2023-02-06T07:01:41.633Z,8.60
2023-02-06T07:04:07.996Z,8.53
2023-02-06T07:06:34.234Z,9.13
2023-02-06T07:09:00.465Z,8.90
2023-02-06T07:11:26.786Z,9.17
2023-02-06T07:13:53.126Z,8.40
2023-02-06T07:16:20.361Z,9.10
2023-02-06T07:18:47.374Z,9.87
2023-02-06T07:21:15.843Z,8.80
2023-02-06T07:23:42.147Z,9.13
2023-02-06T07:26:08.459Z,9.23
2023-02-06T07:28:34.765Z,10.40
2023-02-06T07:31:01.807Z,9.87
2023-02-06T07:33:28.301Z,9.80
2023-02-06T07:35:54.566Z,9.23
2023-02-06T07:38:21.033Z,9.43
2023-02-06T07:40:47.259Z,10.03
2023-02-06T07:43:13.826Z,10.20
2023-02-06T07:45:40.192Z,10.03
2023-02-06T07:48:06.856Z,10.13
2023-02-06T07:50:33.156Z,9.83
2023-02-06T07:52:59.393Z,9.90
2023-02-06T07:55:25.817Z,9.77
2023-02-06T07:57:52.105Z,10.03
2023-02-06T08:00:18.470Z,10.20
2023-02-06T08:02:44.722Z,9.83
2023-02-06T08:05:10.948Z,9.40
2023-02-06T08:07:37.203Z,9.03
2023-02-06T08:10:03.549Z,9.30
2023-02-06T08:12:29.898Z,9.57
2023-02-06T08:14:56.337Z,9.80
2023-02-06T08:17:22.601Z,9.73
2023-02-06T08:19:48.892Z,10.13
2023-02-06T08:22:15.101Z,10.13
2023-02-06T08:24:41.343Z,9.67
2023-02-06T08:27:07.561Z,9.93
2023-02-06T08:29:40.348Z,9.97
2023-02-06T08:32:06.578Z,10.10
2023-02-06T08:34:33.349Z,11.07
2023-02-06T08:36:59.565Z,10.23
2023-02-06T08:39:25.777Z,10.00
2023-02-06T08:41:52.072Z,10.00
2023-02-06T08:44:19.429Z,9.90
2023-02-06T08:46:46.444Z,11.30
2023-02-06T08:49:19.946Z,10.63
2023-02-06T08:51:46.745Z,11.07
2023-02-06T08:54:18.837Z,11.03
2023-02-06T08:56:45.476Z,10.43
2023-02-06T08:59:12.522Z,11.13
2023-02-06T09:01:38.989Z,11.00
2023-02-06T09:04:06.495Z,10.93
2023-02-06T09:06:34.104Z,11.90
2023-02-06T09:09:00.428Z,11.60
2023-02-06T09:11:27.180Z,11.27
2023-02-06T09:13:55.987Z,11.97
2023-02-06T09:16:22.653Z,11.80
2023-02-06T09:18:50.014Z,13.50
2023-02-06T09:21:20.868Z,13.03
2023-02-06T09:23:48.920Z,12.33
2023-02-06T09:26:16.075Z,12.93
2023-02-06T09:28:42.821Z,13.33
2023-02-06T09:31:09.742Z,13.47
2023-02-06T09:33:37.602Z,14.20
2023-02-06T09:36:05.676Z,13.73
2023-02-06T09:38:32.221Z,14.50
2023-02-06T09:41:00.508Z,14.73
2023-02-06T09:43:27.323Z,14.43
2023-02-06T09:45:59.381Z,14.90
2023-02-06T09:48:27.257Z,14.67
2023-02-06T09:51:04.147Z,15.53
2023-02-06T09:53:42.958Z,14.90
2023-02-06T09:56:14.394Z,15.00
2023-02-06T09:58:48.732Z,14.50
2023-02-06T10:01:34.669Z,14.27
2023-02-06T10:04:25.021Z,14.00
2023-02-06T10:06:55.818Z,14.43
2023-02-06T10:09:29.139Z,13.73
2023-02-06T10:12:01.416Z,14.63
2023-02-06T10:14:51.015Z,15.17
2023-02-06T10:17:23.229Z,14.57
2023-02-06T10:20:08.182Z,13.63
2023-02-06T10:22:38.911Z,14.73
2023-02-06T10:25:27.965Z,14.57
2023-02-06T10:27:59.075Z,14.13
2023-02-06T10:30:45.744Z,12.60
2023-02-06T10:33:25.318Z,12.87
2023-02-06T10:36:10.692Z,12.77
2023-02-06T10:38:46.173Z,12.60
2023-02-06T10:41:12.365Z,11.87
2023-02-06T10:43:48.614Z,11.90
2023-02-06T10:46:41.077Z,11.50
2023-02-06T10:49:10.718Z,12.53
2023-02-06T10:51:44.420Z,12.47
2023-02-06T10:54:15.455Z,12.37
2023-02-06T10:56:44.462Z,11.67
2023-02-06T10:59:18.440Z,13.43
2023-02-06T11:01:47.068Z,12.37
2023-02-06T11:04:15.402Z,11.87
2023-02-06T11:06:42.534Z,12.07
2023-02-06T11:09:09.541Z,12.37
2023-02-06T11:11:44.122Z,12.67
2023-02-06T11:14:24.740Z,13.93
2023-02-06T11:16:51.363Z,13.97
2023-02-06T11:19:20.557Z,13.47
2023-02-06T11:21:50.849Z,12.67
2023-02-06T11:24:18.073Z,13.37
2023-02-06T11:27:10.852Z,13.17
2023-02-06T11:29:43.270Z,13.30
2023-02-06T11:32:24.636Z,13.30
2023-02-06T11:34:53.521Z,13.20
2023-02-06T11:37:32.306Z,13.87
2023-02-06T11:40:17.113Z,13.53
2023-02-06T11:42:44.155Z,14.00
2023-02-06T11:45:22.454Z,13.80
2023-02-06T11:47:48.934Z,14.40
2023-02-06T11:50:23.916Z,14.30
2023-02-06T11:52:55.745Z,14.63
2023-02-06T11:55:27.277Z,14.50
2023-02-06T11:58:10.227Z,15.33
2023-02-06T12:00:37.984Z,16.13
2023-02-06T12:03:04.803Z,15.67
2023-02-06T12:05:38.018Z,16.63
2023-02-06T12:08:10.043Z,15.53
2023-02-06T12:10:38.816Z,17.27
2023-02-06T12:13:08.207Z,16.67
2023-02-06T12:15:46.719Z,16.07
2023-02-06T12:18:15.838Z,15.90
2023-02-06T12:20:48.817Z,16.33
2023-02-06T12:23:27.101Z,16.00
2023-02-06T12:25:56.091Z,16.07
2023-02-06T12:28:45.342Z,16.73
2023-02-06T12:31:35.018Z,16.80
2023-02-06T12:34:12.532Z,17.33
2023-02-06T12:36:54.672Z,15.63
2023-02-06T12:39:22.162Z,16.53
2023-02-06T12:41:56.016Z,15.63
2023-02-06T12:44:30.087Z,16.03
2023-02-06T12:47:11.335Z,15.00
2023-02-06T12:49:44.139Z,15.33
2023-02-06T12:52:16.595Z,14.90
2023-02-06T12:54:47.760Z,16.27
2023-02-06T12:57:15.985Z,15.70
2023-02-06T12:59:56.728Z,14.50
2023-02-06T13:02:40.173Z,14.13
2023-02-06T13:05:15.695Z,15.13
2023-02-06T13:07:49.421Z,14.53
2023-02-06T13:10:20.025Z,13.93
2023-02-06T13:13:12.834Z,14.97
2023-02-06T13:15:40.391Z,13.50
2023-02-06T13:18:25.462Z,13.77
2023-02-06T13:21:13.324Z,13.60
2023-02-06T13:23:48.662Z,14.03
2023-02-06T13:26:14.892Z,14.10
2023-02-06T13:28:41.902Z,14.37
2023-02-06T13:31:22.328Z,14.27
2023-02-06T13:33:52.108Z,14.00
2023-02-06T13:36:24.338Z,14.60
2023-02-06T13:38:54.288Z,15.23
2023-02-06T13:41:28.708Z,14.47
2023-02-06T13:43:57.020Z,13.13
2023-02-06T13:46:31.211Z,14.17
2023-02-06T13:49:25.236Z,14.70
2023-02-06T13:52:10.041Z,14.30
2023-02-06T13:54:55.782Z,14.50
2023-02-06T13:57:25.177Z,14.03
2023-02-06T14:00:18.028Z,14.23
2023-02-06T14:02:47.484Z,16.50
2023-02-06T14:05:21.413Z,16.67
2023-02-06T14:08:04.463Z,16.80
2023-02-06T14:10:56.836Z,16.03
2023-02-06T14:13:34.343Z,16.27
2023-02-06T14:16:12.298Z,15.93
2023-02-06T14:18:44.046Z,17.00
2023-02-06T14:21:21.707Z,16.63
2023-02-06T14:24:03.813Z,16.93
2023-02-06T14:26:41.537Z,16.93
2023-02-06T14:29:44.634Z,18.23
2023-02-06T14:32:32.578Z,16.27
2023-02-06T14:35:08.296Z,16.30
2023-02-06T14:37:52.630Z,16.83
2023-02-06T14:40:21.049Z,15.80
2023-02-06T14:42:48.510Z,16.07
2023-02-06T14:45:14.735Z,16.50
2023-02-06T14:47:43.052Z,16.37
2023-02-06T14:50:26.869Z,15.83
2023-02-06T14:52:59.770Z,16.77
2023-02-06T14:55:37.091Z,17.03
2023-02-06T14:58:04.289Z,14.30
2023-02-06T15:00:31.105Z,13.83
2023-02-06T15:03:15.093Z,14.40
2023-02-06T15:05:41.413Z,14.40
2023-02-06T15:08:07.712Z,14.10
2023-02-06T15:10:35.762Z,14.17
2023-02-06T15:13:02.637Z,14.27
2023-02-06T15:15:30.493Z,14.17
2023-02-06T15:18:07.680Z,13.37
2023-02-06T15:20:40.185Z,14.53
2023-02-06T15:23:17.821Z,13.60
2023-02-06T15:25:47.736Z,12.83
2023-02-06T15:28:18.755Z,12.23
2023-02-06T15:30:45.236Z,12.93
2023-02-06T15:33:14.275Z,12.83
2023-02-06T15:35:41.346Z,12.20
2023-02-06T15:38:10.657Z,12.67
2023-02-06T15:40:39.058Z,12.73
2023-02-06T15:43:05.671Z,12.00
2023-02-06T15:45:35.662Z,12.70
2023-02-06T15:48:19.512Z,12.33
2023-02-06T15:51:00.263Z,12.73
2023-02-06T15:53:31.612Z,12.47
2023-02-06T15:55:58.523Z,12.13
2023-02-06T15:58:25.347Z,12.73
2023-02-06T16:00:56.329Z,12.77
2023-02-06T16:03:24.268Z,12.17
2023-02-06T16:05:51.316Z,12.13
2023-02-06T16:08:20.366Z,13.40
2023-02-06T16:10:51.202Z,13.10
2023-02-06T16:13:19.684Z,12.40
2023-02-06T16:16:01.806Z,13.13
2023-02-06T16:18:32.951Z,12.80
2023-02-06T16:21:17.674Z,13.77
2023-02-06T16:23:45.433Z,11.87
2023-02-06T16:26:14.943Z,12.40
2023-02-06T16:28:48.031Z,13.13
2023-02-06T16:31:15.184Z,12.43
2023-02-06T16:33:45.632Z,12.73
2023-02-06T16:36:12.860Z,11.63
2023-02-06T16:38:43.131Z,12.10
2023-02-06T16:41:23.539Z,11.50
2023-02-06T16:43:50.405Z,12.07
2023-02-06T16:46:18.131Z,13.20
2023-02-06T16:48:44.403Z,13.83
2023-02-06T16:51:18.405Z,13.90
2023-02-06T16:53:45.415Z,13.77
2023-02-06T16:56:12.897Z,13.60
2023-02-06T16:58:39.511Z,13.17
2023-02-06T17:01:08.447Z,14.40
2023-02-06T17:03:34.784Z,12.97
2023-02-06T17:06:01.053Z,13.87
2023-02-06T17:08:27.298Z,12.30
2023-02-06T17:10:53.585Z,12.93
2023-02-06T17:13:21.090Z,13.17
2023-02-06T17:15:47.989Z,13.57
2023-02-06T17:18:16.366Z,12.97
2023-02-06T17:20:43.746Z,13.00
2023-02-06T17:23:14.235Z,13.43
2023-02-06T17:25:41.540Z,12.57
2023-02-06T17:28:09.058Z,12.87
2023-02-06T17:30:36.362Z,13.07
2023-02-06T17:33:02.811Z,13.00
2023-02-06T17:35:29.126Z,13.03
2023-02-06T17:37:55.418Z,14.33
2023-02-06T17:40:23.444Z,13.43
2023-02-06T17:42:50.146Z,14.57
2023-02-06T17:45:16.449Z,16.93
2023-02-06T17:47:42.827Z,16.37
2023-02-06T17:50:11.429Z,15.07
2023-02-06T17:52:37.683Z,14.67
2023-02-06T17:55:04.087Z,14.60
2023-02-06T17:57:30.790Z,14.13
2023-02-06T17:59:57.208Z,13.57
2023-02-06T18:02:23.770Z,14.97
2023-02-06T18:04:50.627Z,15.00
2023-02-06T18:07:16.936Z,14.33
2023-02-06T18:09:43.290Z,15.03
2023-02-06T18:12:09.976Z,14.57
2023-02-06T18:14:36.226Z,14.53
2023-02-06T18:17:05.436Z,15.10
2023-02-06T18:19:32.049Z,15.00
2023-02-06T18:21:58.303Z,14.53
2023-02-06T18:24:24.534Z,14.87
2023-02-06T18:26:50.766Z,15.20
2023-02-06T18:29:17.014Z,14.60
2023-02-06T18:31:43.356Z,14.90
2023-02-06T18:34:10.184Z,16.13
2023-02-06T18:36:37.614Z,16.27
2023-02-06T18:39:04.787Z,15.63
2023-02-06T18:41:49.544Z,15.87
2023-02-06T18:44:15.819Z,16.60
2023-02-06T18:46:42.076Z,16.17
2023-02-06T18:49:08.366Z,16.53
2023-02-06T18:51:34.602Z,15.73
2023-02-06T18:54:00.908Z,15.97
2023-02-06T18:56:27.532Z,15.67
2023-02-06T18:58:53.798Z,17.03
2023-02-06T19:01:21.653Z,16.50
2023-02-06T19:03:48.259Z,15.10
2023-02-06T19:06:18.940Z,16.27
2023-02-06T19:08:46.710Z,17.90
2023-02-06T19:11:13.517Z,16.43
2023-02-06T19:13:40.610Z,17.77
2023-02-06T19:16:08.679Z,19.13
2023-02-06T19:18:38.296Z,19.67
2023-02-06T19:21:07.847Z,19.30
2023-02-06T19:23:36.079Z,18.30
2023-02-06T19:26:04.733Z,18.57
2023-02-06T19:28:31.437Z,17.63
2023-02-06T19:30:59.669Z,17.90
2023-02-06T19:33:25.913Z,16.37
2023-02-06T19:35:52.299Z,16.13
2023-02-06T19:38:18.689Z,16.60
2023-02-06T19:40:47.205Z,17.00
2023-02-06T19:43:14.242Z,15.77
2023-02-06T19:45:40.544Z,15.90
2023-02-06T19:48:11.908Z,17.40
2023-02-06T19:50:39.099Z,17.60
2023-02-06T19:53:05.738Z,16.83
2023-02-06T19:55:32.606Z,16.50
2023-02-06T19:58:00.010Z,16.93
2023-02-06T20:00:26.877Z,17.00
2023-02-06T20:02:53.138Z,17.90
2023-02-06T20:05:25.886Z,17.70
2023-02-06T20:07:53.725Z,19.83
2023-02-06T20:10:23.067Z,19.33
2023-02-06T20:12:50.804Z,17.37
2023-02-06T20:15:17.102Z,17.87
2023-02-06T20:17:43.409Z,17.77
2023-02-06T20:20:10.383Z,16.43
2023-02-06T20:22:36.640Z,18.00
2023-02-06T20:25:02.922Z,16.67
2023-02-06T20:27:29.137Z,17.33
2023-02-06T20:29:55.426Z,17.77
2023-02-06T20:32:22.712Z,17.20
2023-02-06T20:34:48.977Z,17.30
2023-02-06T20:37:17.592Z,17.03
2023-02-06T20:39:43.839Z,16.43
2023-02-06T20:42:10.059Z,18.23
2023-02-06T20:44:36.289Z,17.20
2023-02-06T20:47:02.555Z,18.33
2023-02-06T20:49:31.128Z,17.47
2023-02-06T20:51:57.602Z,17.20
2023-02-06T20:54:24.034Z,17.37
2023-02-06T20:56:50.591Z,17.77
2023-02-06T20:59:19.717Z,18.63
2023-02-06T21:01:46.060Z,17.40
2023-02-06T21:04:13.156Z,18.13
2023-02-06T21:06:39.808Z,17.97
2023-02-06T21:09:07.221Z,18.47
2023-02-06T21:11:35.185Z,17.33
2023-02-06T21:14:02.378Z,18.77
2023-02-06T21:16:29.680Z,18.20
2023-02-06T21:18:57.267Z,19.43
2023-02-06T21:21:23.754Z,18.43
2023-02-06T21:23:50.057Z,18.70
2023-02-06T21:26:17.879Z,19.00
2023-02-06T21:28:45.154Z,19.77
2023-02-06T21:31:16.312Z,18.07
2023-02-06T21:33:42.948Z,18.53
2023-02-06T21:36:09.258Z,19.33
2023-02-06T21:38:35.966Z,19.87
2023-02-06T21:41:06.134Z,20.53
2023-02-06T21:43:32.841Z,20.77
2023-02-06T21:45:59.160Z,20.50
2023-02-06T21:48:25.508Z,20.77
2023-02-06T21:50:51.731Z,21.27
2023-02-06T21:53:18.118Z,21.80
2023-02-06T21:55:44.805Z,21.03
2023-02-06T21:58:14.486Z,20.87
2023-02-06T22:00:45.233Z,21.27
2023-02-06T22:03:12.266Z,21.20
2023-02-06T22:05:38.923Z,20.50
2023-02-06T22:08:05.586Z,21.77
2023-02-06T22:10:34.377Z,20.07
2023-02-06T22:13:00.651Z,21.07
2023-02-06T22:15:26.865Z,21.13
2023-02-06T22:17:53.098Z,19.93
2023-02-06T22:20:19.393Z,20.37
2023-02-06T22:22:46.374Z,20.60
2023-02-06T22:25:12.690Z,21.60
2023-02-06T22:27:38.978Z,21.07
2023-02-06T22:30:06.137Z,19.40
2023-02-06T22:32:35.480Z,20.70
2023-02-06T22:35:01.748Z,19.70
2023-02-06T22:37:29.990Z,20.10
2023-02-06T22:39:56.216Z,20.37
2023-02-06T22:42:22.924Z,20.67
2023-02-06T22:44:49.519Z,19.73
2023-02-06T22:47:16.081Z,21.27
2023-02-06T22:49:42.591Z,19.33
2023-02-06T22:52:29.130Z,20.70
2023-02-06T22:54:55.552Z,19.50
2023-02-06T22:57:21.860Z,20.10
2023-02-06T22:59:48.090Z,19.53
2023-02-06T23:02:14.343Z,20.10
2023-02-06T23:04:40.713Z,19.53
2023-02-06T23:07:07.222Z,19.83
2023-02-06T23:09:35.323Z,20.23
2023-02-06T23:12:02.077Z,20.47
2023-02-06T23:14:29.366Z,19.27
2023-02-06T23:16:55.664Z,18.97
2023-02-06T23:19:21.932Z,19.43
2023-02-06T23:21:49.295Z,20.80
2023-02-06T23:24:15.677Z,20.00
2023-02-06T23:26:43.127Z,18.27
2023-02-06T23:29:10.460Z,18.97
2023-02-06T23:31:36.735Z,18.47
2023-02-06T23:34:03.255Z,19.10
2023-02-06T23:36:29.609Z,19.00
2023-02-06T23:38:55.863Z,19.53
2023-02-06T23:41:27.940Z,19.23
2023-02-06T23:43:55.675Z,17.60
2023-02-06T23:46:22.439Z,17.07
2023-02-06T23:48:48.925Z,19.00
2023-02-06T23:51:15.449Z,18.43
2023-02-06T23:53:42.157Z,18.60
2023-02-06T23:56:12.520Z,17.87
2023-02-06T23:58:39.038Z,17.73
